createdAt,value
2023-07-21T00:00:20.423Z,96579.88
2023-07-21T00:02:46.920Z,96577.78
2023-07-21T00:05:13.350Z,96575.66
2023-07-21T00:07:39.750Z,96570.16
2023-07-21T00:10:06.177Z,96562.69
2023-07-21T00:12:32.619Z,96563.00
2023-07-21T00:14:59.070Z,96561.38
2023-07-21T00:17:25.562Z,96557.47
2023-07-21T00:19:51.975Z,96553.41
2023-07-21T00:22:18.434Z,96560.25
2023-07-21T00:24:44.907Z,96552.13
2023-07-21T00:27:11.347Z,96552.28
2023-07-21T00:29:37.778Z,96553.59
2023-07-21T00:32:04.173Z,96551.63
2023-07-21T00:34:30.564Z,96556.03
2023-07-21T00:36:56.958Z,96547.28
2023-07-21T00:39:23.418Z,96539.31
2023-07-21T00:41:49.803Z,96541.25
2023-07-21T00:44:16.210Z,96544.50
2023-07-21T00:46:42.719Z,96535.72
2023-07-21T00:49:09.149Z,96534.28
2023-07-21T00:51:35.522Z,96529.56
2023-07-21T00:54:01.927Z,96522.22
2023-07-21T00:56:28.335Z,96515.72
2023-07-21T00:58:54.765Z,96517.66
2023-07-21T01:01:21.288Z,96515.41
2023-07-21T01:03:47.709Z,96508.72
2023-07-21T01:06:14.136Z,96502.22
2023-07-21T01:08:40.568Z,96503.06
2023-07-21T01:11:06.935Z,96507.75
2023-07-21T01:13:33.338Z,96502.41
2023-07-21T01:15:59.754Z,96495.44
2023-07-21T01:18:26.192Z,96506.63
2023-07-21T01:20:52.600Z,96501.59
2023-07-21T01:23:18.983Z,96503.22
2023-07-21T01:25:45.436Z,96507.13
2023-07-21T01:28:11.842Z,96500.31
2023-07-21T01:30:38.242Z,96508.72
2023-07-21T01:33:04.702Z,96513.31
2023-07-21T01:35:31.120Z,96506.94
2023-07-21T01:37:57.503Z,96512.66
2023-07-21T01:40:23.896Z,96498.03
2023-07-21T01:42:50.374Z,96496.09
2023-07-21T01:45:16.879Z,96497.22
2023-07-21T01:47:43.310Z,96495.91
2023-07-21T01:50:09.752Z,96493.81
2023-07-21T01:52:36.154Z,96491.38
2023-07-21T01:55:02.590Z,96496.25
2023-07-21T01:57:28.973Z,96498.19
2023-07-21T01:59:55.382Z,96502.41
2023-07-21T02:02:21.773Z,96502.41
2023-07-21T02:04:48.150Z,96498.00
2023-07-21T02:07:14.548Z,96503.06
2023-07-21T02:09:40.964Z,96495.91
2023-07-21T02:12:07.360Z,96497.34
2023-07-21T02:14:33.779Z,96498.81
2023-07-21T02:17:00.214Z,96494.13
2023-07-21T02:19:26.655Z,96503.53
2023-07-21T02:21:53.071Z,96488.59
2023-07-21T02:24:19.552Z,96489.75
2023-07-21T02:26:46.043Z,96489.88
2023-07-21T02:29:12.452Z,96500.91
2023-07-21T02:31:38.902Z,96500.44
2023-07-21T02:34:05.301Z,96496.53
2023-07-21T02:36:31.733Z,96503.97
2023-07-21T02:38:58.129Z,96494.59
2023-07-21T02:41:24.524Z,96489.41
2023-07-21T02:43:50.939Z,96479.81
2023-07-21T02:46:17.384Z,96478.69
2023-07-21T02:48:43.878Z,96479.81
2023-07-21T02:51:10.281Z,96479.50
2023-07-21T02:53:36.674Z,96468.16
2023-07-21T02:56:03.100Z,96481.78
2023-07-21T02:58:29.497Z,96480.66
2023-07-21T03:00:55.909Z,96473.19
2023-07-21T03:03:22.565Z,96484.53
2023-07-21T03:05:49.002Z,96484.22
2023-07-21T03:08:15.394Z,96482.09
2023-07-21T03:10:41.798Z,96485.34
2023-07-21T03:13:08.225Z,96484.03
2023-07-21T03:15:34.616Z,96492.28
2023-07-21T03:18:01.066Z,96483.56
2023-07-21T03:20:27.487Z,96491.81
2023-07-21T03:22:53.976Z,96485.66
2023-07-21T03:25:20.414Z,96485.34
2023-07-21T03:27:46.841Z,96485.00
2023-07-21T03:30:13.234Z,96485.53
2023-07-21T03:32:39.730Z,96472.53
2023-07-21T03:35:06.219Z,96480.00
2023-07-21T03:37:32.692Z,96478.38
2023-07-21T03:39:59.205Z,96481.13
2023-07-21T03:42:25.630Z,96470.09
2023-07-21T03:44:52.057Z,96465.25
2023-07-21T03:47:18.545Z,96455.34
2023-07-21T03:49:45.032Z,96453.38
2023-07-21T03:52:11.425Z,96451.78
2023-07-21T03:54:37.833Z,96446.59
2023-07-21T03:57:04.228Z,96454.03
2023-07-21T03:59:30.629Z,96453.56
2023-07-21T04:01:57.044Z,96457.44
2023-07-21T04:04:23.532Z,96453.88
2023-07-21T04:06:50.052Z,96451.91
2023-07-21T04:09:16.454Z,96457.44
2023-07-21T04:11:42.847Z,96461.94
2023-07-21T04:14:09.240Z,96466.13
2023-07-21T04:16:35.655Z,96476.00
2023-07-21T04:19:02.131Z,96479.44
2023-07-21T04:21:28.607Z,96485.75
2023-07-21T04:23:55.102Z,96478.63
2023-07-21T04:26:21.490Z,96488.50
2023-07-21T04:28:47.888Z,96494.97
2023-07-21T04:31:14.365Z,96508.75
2023-07-21T04:33:40.799Z,96512.59
2023-07-21T04:36:07.173Z,96512.56
2023-07-21T04:38:33.552Z,96516.03
2023-07-21T04:40:59.942Z,96518.13
2023-07-21T04:43:26.321Z,96521.56
2023-07-21T04:45:52.734Z,96524.16
2023-07-21T04:48:19.126Z,96521.88
2023-07-21T04:50:45.510Z,96523.38
2023-07-21T04:53:11.887Z,96523.56
2023-07-21T04:55:38.269Z,96525.69
2023-07-21T04:58:04.648Z,96521.47
2023-07-21T05:00:31.042Z,96511.78
2023-07-21T05:02:57.465Z,96525.38
2023-07-21T05:05:23.922Z,96519.22
2023-07-21T05:07:50.300Z,96516.19
2023-07-21T05:10:16.696Z,96509.19
2023-07-21T05:12:43.076Z,96507.59
2023-07-21T05:15:09.453Z,96505.31
2023-07-21T05:17:35.950Z,96502.56
2023-07-21T05:20:02.415Z,96499.34
2023-07-21T05:22:28.825Z,96484.09
2023-07-21T05:24:55.231Z,96479.88
2023-07-21T05:27:21.630Z,96468.53
2023-07-21T05:29:48.030Z,96465.97
2023-07-21T05:32:14.476Z,96463.03
2023-07-21T05:34:40.960Z,96473.94
2023-07-21T05:37:07.358Z,96464.69
2023-07-21T05:39:33.764Z,96454.69
2023-07-21T05:42:00.162Z,96444.16
2023-07-21T05:44:26.559Z,96424.03
2023-07-21T05:46:52.994Z,96419.03
2023-07-21T05:49:19.392Z,96415.63
2023-07-21T05:51:45.860Z,96426.78
2023-07-21T05:54:12.279Z,96437.34
2023-07-21T05:56:38.662Z,96446.72
2023-07-21T05:59:05.039Z,96452.19
2023-07-21T06:01:31.496Z,96466.75
2023-07-21T06:03:58.029Z,96469.50
2023-07-21T06:06:24.744Z,96470.31
2023-07-21T06:08:51.399Z,96492.53
2023-07-21T06:11:17.801Z,96537.44
2023-07-21T06:13:44.222Z,96552.25
2023-07-21T06:16:10.606Z,96551.06
2023-07-21T06:18:37.009Z,96530.72
2023-07-21T06:21:03.418Z,96537.53
2023-07-21T06:23:29.842Z,96520.25
2023-07-21T06:25:56.265Z,96473.78
2023-07-21T06:28:22.690Z,96471.22
2023-07-21T06:30:49.575Z,96486.88
2023-07-21T06:33:16.052Z,96495.41
2023-07-21T06:35:42.436Z,96501.28
2023-07-21T06:38:08.849Z,96531.81
2023-07-21T06:40:35.268Z,96557.63
2023-07-21T06:43:01.695Z,96617.75
2023-07-21T06:45:28.129Z,96652.66
2023-07-21T06:47:54.725Z,96636.19
2023-07-21T06:50:21.356Z,96587.97
2023-07-21T06:52:48.257Z,96564.94
2023-07-21T06:55:15.696Z,96575.75
2023-07-21T06:57:42.117Z,96586.13
2023-07-21T07:00:08.509Z,96588.44
2023-07-21T07:02:34.941Z,96592.00
2023-07-21T07:05:01.419Z,96589.78
2023-07-21T07:07:27.837Z,96591.22
2023-07-21T07:09:54.227Z,96596.09
2023-07-21T07:12:20.604Z,96596.72
2023-07-21T07:14:46.994Z,96594.88
2023-07-21T07:17:13.405Z,96592.75
2023-07-21T07:19:39.829Z,96592.25
2023-07-21T07:22:06.233Z,96585.41
2023-07-21T07:24:32.689Z,96580.34
2023-07-21T07:26:59.110Z,96562.59
2023-07-21T07:29:25.690Z,96568.94
2023-07-21T07:31:52.119Z,96570.63
2023-07-21T07:34:18.571Z,96563.28
2023-07-21T07:36:45.000Z,96567.41
2023-07-21T07:39:11.423Z,96568.84
2023-07-21T07:41:37.893Z,96558.03
2023-07-21T07:44:04.384Z,96567.31
2023-07-21T07:46:30.797Z,96587.53
2023-07-21T07:48:57.263Z,96631.13
2023-07-21T07:51:23.976Z,96650.88
2023-07-21T07:53:50.633Z,96649.47
2023-07-21T07:56:17.034Z,96615.66
2023-07-21T07:58:43.427Z,96606.88
2023-07-21T08:01:09.888Z,96625.31
2023-07-21T08:03:36.543Z,96625.00
2023-07-21T08:06:03.008Z,96627.06
2023-07-21T08:08:29.449Z,96624.88
2023-07-21T08:10:55.855Z,96617.41
2023-07-21T08:13:22.247Z,96607.41
2023-07-21T08:15:48.681Z,96617.56
2023-07-21T08:18:15.202Z,96643.84
2023-07-21T08:20:41.621Z,96663.28
2023-07-21T08:23:23.314Z,96664.50
2023-07-21T08:25:54.968Z,96657.13
2023-07-21T08:28:21.351Z,96659.75
2023-07-21T08:30:57.454Z,96659.25
2023-07-21T08:33:25.042Z,96659.91
2023-07-21T08:35:51.486Z,96661.38
2023-07-21T08:38:17.926Z,96652.13
2023-07-21T08:40:44.320Z,96646.97
2023-07-21T08:43:10.717Z,96651.84
2023-07-21T08:45:37.206Z,96659.94
2023-07-21T08:48:03.676Z,96654.28
2023-07-21T08:50:30.072Z,96661.03
2023-07-21T08:52:56.489Z,96659.34
2023-07-21T08:55:22.868Z,96662.19
2023-07-21T08:57:49.287Z,96655.41
2023-07-21T09:00:15.685Z,96659.50
2023-07-21T09:02:42.117Z,96660.28
2023-07-21T09:05:08.585Z,96669.78
2023-07-21T09:07:35.052Z,96670.63
2023-07-21T09:10:01.537Z,96685.97
2023-07-21T09:12:28.011Z,96688.72
2023-07-21T09:14:54.443Z,96699.72
2023-07-21T09:17:20.860Z,96701.66
2023-07-21T09:19:47.287Z,96700.22
2023-07-21T09:22:13.663Z,96695.41
2023-07-21T09:24:40.159Z,96691.31
2023-07-21T09:27:06.569Z,96702.56
2023-07-21T09:29:32.968Z,96695.34
2023-07-21T09:31:59.352Z,96708.00
2023-07-21T09:34:25.748Z,96709.84
2023-07-21T09:36:52.126Z,96704.44
2023-07-21T09:39:18.538Z,96694.94
2023-07-21T09:41:46.061Z,96698.50
2023-07-21T09:44:12.453Z,96706.88
2023-07-21T09:46:38.850Z,96703.84
2023-07-21T09:49:05.264Z,96715.25
2023-07-21T09:51:31.665Z,96706.09
2023-07-21T09:53:58.055Z,96700.47
2023-07-21T09:56:24.702Z,96697.44
2023-07-21T09:58:51.358Z,96696.19
2023-07-21T10:01:17.875Z,96702.81
2023-07-21T10:03:44.513Z,96697.22
2023-07-21T10:06:10.937Z,96692.06
2023-07-21T10:08:37.476Z,96693.53
2023-07-21T10:11:03.968Z,96694.97
2023-07-21T10:13:30.377Z,96700.09
2023-07-21T10:15:56.787Z,96689.50
2023-07-21T10:18:23.254Z,96697.56
2023-07-21T10:20:49.726Z,96699.38
2023-07-21T10:23:16.116Z,96692.94
2023-07-21T10:25:42.518Z,96692.03
2023-07-21T10:28:11.028Z,96689.16
2023-07-21T10:30:38.789Z,96695.19
2023-07-21T10:33:05.299Z,96692.28
2023-07-21T10:35:31.785Z,96683.84
2023-07-21T10:37:58.178Z,96685.16
2023-07-21T10:40:24.557Z,96685.28
2023-07-21T10:42:50.995Z,96682.63
2023-07-21T10:45:17.407Z,96688.66
2023-07-21T10:47:43.889Z,96684.34
2023-07-21T10:50:10.329Z,96686.97
2023-07-21T10:52:36.719Z,96673.38
2023-07-21T10:55:03.134Z,96679.81
2023-07-21T10:57:29.519Z,96664.31
2023-07-21T10:59:55.910Z,96663.47
2023-07-21T11:02:22.349Z,96664.13
2023-07-21T11:04:48.833Z,96658.03
2023-07-21T11:07:15.220Z,96653.09
2023-07-21T11:09:41.645Z,96654.41
2023-07-21T11:12:08.047Z,96657.78
2023-07-21T11:14:34.462Z,96655.34
2023-07-21T11:17:01.024Z,96656.38
2023-07-21T11:19:27.609Z,96658.16
2023-07-21T11:21:56.167Z,96657.84
2023-07-21T11:24:24.567Z,96662.13
2023-07-21T11:26:50.969Z,96676.31
2023-07-21T11:29:17.345Z,96671.94
2023-07-21T11:31:43.800Z,96668.50
2023-07-21T11:34:10.322Z,96672.69
2023-07-21T11:36:36.738Z,96679.63
2023-07-21T11:39:03.155Z,96685.63
2023-07-21T11:41:29.531Z,96680.34
2023-07-21T11:43:55.939Z,96686.00
2023-07-21T11:46:22.405Z,96686.84
2023-07-21T11:48:48.827Z,96686.91
2023-07-21T11:51:15.253Z,96689.22
2023-07-21T11:53:41.672Z,96692.81
2023-07-21T11:56:08.101Z,96691.16
2023-07-21T11:58:34.516Z,96692.50
2023-07-21T12:01:00.907Z,96700.38
2023-07-21T12:03:27.400Z,96689.16
2023-07-21T12:05:53.882Z,96691.91
2023-07-21T12:08:20.291Z,96698.63
2023-07-21T12:10:46.682Z,96692.34
2023-07-21T12:13:13.083Z,96696.41
2023-07-21T12:15:39.477Z,96689.22
2023-07-21T12:18:06.000Z,96683.81
2023-07-21T12:20:32.465Z,96680.91
2023-07-21T12:22:58.894Z,96688.66
2023-07-21T12:25:25.312Z,96676.31
2023-07-21T12:27:51.818Z,96675.16
2023-07-21T12:30:18.337Z,96667.31
2023-07-21T12:32:44.850Z,96678.41
2023-07-21T12:35:11.352Z,96686.25
2023-07-21T12:37:37.756Z,96691.13
2023-07-21T12:40:04.143Z,96696.22
2023-07-21T12:42:30.556Z,96696.06
2023-07-21T12:44:56.980Z,96693.66
2023-07-21T12:47:23.439Z,96692.00
2023-07-21T12:49:49.892Z,96700.94
2023-07-21T12:52:16.289Z,96696.69
2023-07-21T12:54:44.753Z,96702.66
2023-07-21T12:57:12.450Z,96702.00
2023-07-21T12:59:38.857Z,96703.31
2023-07-21T13:02:05.431Z,96689.53
2023-07-21T13:04:32.075Z,96697.69
2023-07-21T13:06:58.546Z,96699.91
2023-07-21T13:09:24.979Z,96696.56
2023-07-21T13:11:53.017Z,96695.41
2023-07-21T13:14:20.320Z,96693.53
2023-07-21T13:16:46.823Z,96690.97
2023-07-21T13:19:13.313Z,96685.66
2023-07-21T13:21:39.752Z,96673.38
2023-07-21T13:24:06.165Z,96682.03
2023-07-21T13:26:32.570Z,96681.91
2023-07-21T13:28:58.984Z,96678.28
2023-07-21T13:31:25.472Z,96674.41
2023-07-21T13:33:51.878Z,96666.44
2023-07-21T13:36:18.274Z,96659.03
2023-07-21T13:38:44.640Z,96663.41
2023-07-21T13:41:11.049Z,96664.72
2023-07-21T13:43:37.447Z,96662.16
2023-07-21T13:46:03.902Z,96667.56
2023-07-21T13:48:30.427Z,96668.38
2023-07-21T13:50:56.899Z,96659.97
2023-07-21T13:53:23.304Z,96662.59
2023-07-21T13:55:49.694Z,96660.31
2023-07-21T13:58:16.093Z,96660.19
2023-07-21T14:00:42.497Z,96658.34
2023-07-21T14:03:09.264Z,96661.41
2023-07-21T14:05:35.769Z,96660.75
2023-07-21T14:08:02.156Z,96661.59
2023-07-21T14:10:28.528Z,96658.00
2023-07-21T14:12:54.898Z,96652.97
2023-07-21T14:15:21.307Z,96650.56
2023-07-21T14:17:47.719Z,96644.22
2023-07-21T14:20:14.111Z,96641.66
2023-07-21T14:22:40.508Z,96644.66
2023-07-21T14:25:06.896Z,96645.00
2023-07-21T14:27:33.327Z,96644.78
2023-07-21T14:29:59.780Z,96649.19
2023-07-21T14:32:26.234Z,96648.00
2023-07-21T14:34:52.864Z,96639.38
2023-07-21T14:37:19.252Z,96642.78
2023-07-21T14:39:45.625Z,96640.31
2023-07-21T14:42:12.019Z,96631.72
2023-07-21T14:44:38.405Z,96632.53
2023-07-21T14:47:04.885Z,96636.44
2023-07-21T14:49:31.301Z,96628.50
2023-07-21T14:51:57.690Z,96636.63
2023-07-21T14:54:24.080Z,96632.56
2023-07-21T14:56:50.472Z,96635.50
2023-07-21T14:59:16.850Z,96624.25
2023-07-21T15:01:43.241Z,96632.03
2023-07-21T15:04:09.646Z,96631.91
2023-07-21T15:06:36.064Z,96623.31
2023-07-21T15:09:02.521Z,96618.13
2023-07-21T15:11:28.966Z,96623.13
2023-07-21T15:13:55.349Z,96620.56
2023-07-21T15:16:21.785Z,96624.25
2023-07-21T15:18:48.302Z,96622.97
2023-07-21T15:21:14.691Z,96626.53
2023-07-21T15:23:41.151Z,96628.38
2023-07-21T15:26:07.553Z,96622.91
2023-07-21T15:28:33.978Z,96623.06
2023-07-21T15:31:00.442Z,96630.56
2023-07-21T15:33:26.888Z,96630.09
2023-07-21T15:35:53.325Z,96635.59
2023-07-21T15:38:19.719Z,96637.72
2023-07-21T15:40:46.111Z,96641.66
2023-07-21T15:43:12.532Z,96632.72
2023-07-21T15:45:38.950Z,96641.47
2023-07-21T15:48:05.435Z,96636.44
2023-07-21T15:50:31.839Z,96638.06
2023-07-21T15:52:58.264Z,96633.66
2023-07-21T15:55:24.629Z,96635.63
2023-07-21T15:57:51.010Z,96632.22
2023-07-21T16:00:17.835Z,96629.13
2023-07-21T16:02:44.438Z,96633.66
2023-07-21T16:05:10.926Z,96636.44
2023-07-21T16:07:37.338Z,96637.22
2023-07-21T16:10:03.735Z,96637.38
2023-07-21T16:12:30.209Z,96635.28
2023-07-21T16:14:56.651Z,96636.25
2023-07-21T16:17:23.071Z,96639.16
2023-07-21T16:19:49.512Z,96638.16
2023-07-21T16:22:15.905Z,96638.03
2023-07-21T16:24:42.399Z,96645.69
2023-07-21T16:27:08.798Z,96648.28
2023-07-21T16:29:35.180Z,96648.47
2023-07-21T16:32:01.668Z,96650.91
2023-07-21T16:34:28.111Z,96644.41
2023-07-21T16:36:54.489Z,96648.28
2023-07-21T16:39:20.911Z,96654.47
2023-07-21T16:41:47.280Z,96668.13
2023-07-21T16:44:13.683Z,96674.16
2023-07-21T16:46:40.124Z,96671.22
2023-07-21T16:49:06.571Z,96680.78
2023-07-21T16:51:32.980Z,96674.63
2023-07-21T16:53:59.371Z,96672.16
2023-07-21T16:56:25.745Z,96676.63
2023-07-21T16:58:52.121Z,96681.56
2023-07-21T17:01:18.536Z,96686.50
2023-07-21T17:03:45.076Z,96671.16
2023-07-21T17:06:11.589Z,96673.09
2023-07-21T17:08:38.006Z,96667.16
2023-07-21T17:11:04.385Z,96675.81
2023-07-21T17:13:30.775Z,96676.88
2023-07-21T17:15:57.219Z,96673.09
2023-07-21T17:18:23.641Z,96676.97
2023-07-21T17:20:50.039Z,96677.16
2023-07-21T17:23:16.436Z,96682.66
2023-07-21T17:25:42.803Z,96692.47
2023-07-21T17:28:09.792Z,96689.84
2023-07-21T17:30:36.199Z,96671.78
2023-07-21T17:33:02.652Z,96668.31
2023-07-21T17:35:29.099Z,96662.84
2023-07-21T17:37:55.497Z,96663.78
2023-07-21T17:40:21.902Z,96656.13
2023-07-21T17:42:48.299Z,96653.88
2023-07-21T17:45:14.691Z,96663.91
2023-07-21T17:47:41.159Z,96673.44
2023-07-21T17:50:07.637Z,96666.25
2023-07-21T17:52:34.098Z,96697.53
2023-07-21T17:55:00.573Z,96713.28
2023-07-21T17:57:26.979Z,96736.00
2023-07-21T17:59:53.419Z,96745.50
2023-07-21T18:02:19.826Z,96798.56
2023-07-21T18:04:46.255Z,96795.19
2023-07-21T18:07:12.719Z,96793.41
2023-07-21T18:09:39.128Z,96779.69
2023-07-21T18:12:05.605Z,96772.34
2023-07-21T18:14:32.880Z,96799.69
2023-07-21T18:16:59.274Z,96797.59
2023-07-21T18:19:25.670Z,96785.44
2023-07-21T18:21:52.076Z,96783.34
2023-07-21T18:24:18.495Z,96772.88
2023-07-21T18:26:44.953Z,96791.50
2023-07-21T18:29:11.331Z,96793.56
2023-07-21T18:31:37.758Z,96789.59
2023-07-21T18:34:04.182Z,96788.75
2023-07-21T18:36:30.588Z,96786.75
2023-07-21T18:38:57.014Z,96778.75
2023-07-21T18:41:23.446Z,96789.69
2023-07-21T18:43:51.345Z,96779.38
2023-07-21T18:46:18.184Z,96781.91
2023-07-21T18:48:44.590Z,96784.03
2023-07-21T18:51:10.991Z,96788.00
2023-07-21T18:53:37.367Z,96777.69
2023-07-21T18:56:03.752Z,96799.31
2023-07-21T18:58:30.136Z,96794.66
2023-07-21T19:00:56.596Z,96796.84
2023-07-21T19:03:22.993Z,96820.44
2023-07-21T19:05:49.405Z,96822.53
2023-07-21T19:08:15.865Z,96838.94
2023-07-21T19:10:42.279Z,96841.34
2023-07-21T19:13:08.726Z,96844.72
2023-07-21T19:15:35.132Z,96851.25
2023-07-21T19:18:01.559Z,96843.97
2023-07-21T19:20:28.056Z,96850.31
2023-07-21T19:22:54.475Z,96860.50
2023-07-21T19:25:20.886Z,96863.47
2023-07-21T19:27:47.274Z,96875.22
2023-07-21T19:30:13.705Z,96886.91
2023-07-21T19:32:40.166Z,96884.97
2023-07-21T19:35:06.629Z,96879.41
2023-07-21T19:37:33.026Z,96883.94
2023-07-21T19:39:59.426Z,96883.88
2023-07-21T19:42:25.812Z,96892.28
2023-07-21T19:44:52.176Z,96896.66
2023-07-21T19:47:18.612Z,96899.91
2023-07-21T19:49:45.043Z,96911.78
2023-07-21T19:52:11.428Z,96915.63
2023-07-21T19:54:37.823Z,96912.34
2023-07-21T19:57:04.206Z,96918.16
2023-07-21T19:59:30.571Z,96930.06
2023-07-21T20:01:57.011Z,96933.00
2023-07-21T20:04:23.518Z,96934.28
2023-07-21T20:06:49.965Z,96934.13
2023-07-21T20:09:16.372Z,96930.81
2023-07-21T20:11:42.903Z,96936.59
2023-07-21T20:14:09.341Z,96949.78
2023-07-21T20:16:35.920Z,96936.97
2023-07-21T20:19:02.416Z,96950.09
2023-07-21T20:21:28.933Z,96969.78
2023-07-21T20:23:55.528Z,96974.69
2023-07-21T20:26:22.012Z,96968.50
2023-07-21T20:28:48.412Z,96964.06
2023-07-21T20:31:14.845Z,96961.63
2023-07-21T20:33:41.284Z,96972.03
2023-07-21T20:36:07.687Z,96974.25
2023-07-21T20:38:34.101Z,96972.66
2023-07-21T20:41:00.525Z,96984.25
2023-07-21T20:43:26.920Z,96982.59
2023-07-21T20:45:53.368Z,96983.66
2023-07-21T20:48:19.863Z,96981.19
2023-07-21T20:50:46.279Z,96986.44
2023-07-21T20:53:12.688Z,96984.75
2023-07-21T20:55:39.154Z,96982.59
2023-07-21T20:58:05.552Z,97000.09
2023-07-21T21:00:31.966Z,96985.38
2023-07-21T21:02:58.423Z,96988.66
2023-07-21T21:05:24.859Z,96996.88
2023-07-21T21:07:51.260Z,97002.38
2023-07-21T21:10:17.657Z,97004.81
2023-07-21T21:12:44.048Z,97011.66
2023-07-21T21:15:10.527Z,97013.22
2023-07-21T21:17:37.084Z,97014.38
2023-07-21T21:20:03.575Z,97020.16
2023-07-21T21:22:30.007Z,97015.53
2023-07-21T21:24:56.449Z,97023.75
2023-07-21T21:27:22.900Z,97024.84
2023-07-21T21:29:49.292Z,97023.97
2023-07-21T21:32:15.798Z,97028.59
2023-07-21T21:34:42.326Z,97034.34
2023-07-21T21:37:08.763Z,97028.31
2023-07-21T21:39:35.164Z,97034.88
2023-07-21T21:42:01.552Z,97035.94
2023-07-21T21:44:27.960Z,97030.72
2023-07-21T21:46:54.391Z,97033.75
2023-07-21T21:49:20.896Z,97035.38
2023-07-21T21:51:47.301Z,97045.22
2023-07-21T21:54:13.690Z,97041.34
2023-07-21T21:56:40.075Z,97045.72
2023-07-21T21:59:06.523Z,97051.41
2023-07-21T22:01:32.956Z,97043.00
2023-07-21T22:03:59.490Z,97038.94
2023-07-21T22:06:26.196Z,97045.53
2023-07-21T22:08:52.773Z,97042.03
2023-07-21T22:11:19.152Z,97044.22
2023-07-21T22:13:45.545Z,97035.22
2023-07-21T22:16:11.975Z,97037.69
2023-07-21T22:18:38.450Z,97036.31
2023-07-21T22:21:04.874Z,97044.59
2023-07-21T22:23:31.283Z,97042.94
2023-07-21T22:25:57.706Z,97047.34
2023-07-21T22:28:24.100Z,97039.13
2023-07-21T22:30:50.507Z,97041.03
2023-07-21T22:33:17.023Z,97037.50
2023-07-21T22:35:43.474Z,97040.28
2023-07-21T22:38:09.874Z,97037.28
2023-07-21T22:40:36.297Z,97049.31
2023-07-21T22:43:02.723Z,97049.56
2023-07-21T22:45:29.226Z,97049.06
2023-07-21T22:47:55.704Z,97049.56
2023-07-21T22:50:22.197Z,97044.97
2023-07-21T22:52:48.687Z,97044.94
2023-07-21T22:55:15.131Z,97038.94
2023-07-21T22:57:41.578Z,97046.88
2023-07-21T23:00:07.982Z,97051.25
2023-07-21T23:02:34.488Z,97051.81
2023-07-21T23:05:04.242Z,97053.44
2023-07-21T23:07:30.746Z,97053.13
2023-07-21T23:09:57.228Z,97045.75
2023-07-21T23:12:23.689Z,97045.47
2023-07-21T23:14:50.206Z,97048.16
2023-07-21T23:17:16.709Z,97039.13
2023-07-21T23:19:43.127Z,97052.56
2023-07-21T23:22:09.527Z,97048.75
2023-07-21T23:24:35.983Z,97049.81
2023-07-21T23:27:02.525Z,97051.47
2023-07-21T23:29:28.915Z,97055.22
2023-07-21T23:31:55.306Z,97050.81
2023-07-21T23:34:21.680Z,97053.28
2023-07-21T23:36:48.105Z,97056.56
2023-07-21T23:39:14.482Z,97049.41
2023-07-21T23:41:40.889Z,97045.88
2023-07-21T23:44:07.312Z,97050.31
2023-07-21T23:46:33.722Z,97043.53
2023-07-21T23:49:00.141Z,97039.13
2023-07-21T23:51:26.584Z,97044.91
2023-07-21T23:53:53.168Z,97040.56
2023-07-21T23:56:19.621Z,97032.63
2023-07-21T23:58:46.089Z,97029.88
